createdAt,value
2022-10-22T00:01:42.878Z,100984.81
2022-10-22T00:04:09.527Z,100979.92
2022-10-22T00:06:36.234Z,100985.51
2022-10-22T00:09:03.252Z,100976.41
2022-10-22T00:11:30.189Z,100969.56
2022-10-22T00:13:57.714Z,100961.90
2022-10-22T00:16:24.369Z,100963.58
2022-10-22T00:18:58.055Z,100962.49
2022-10-22T00:21:25.746Z,100961.42
2022-10-22T00:23:52.384Z,100957.36
2022-10-22T00:26:19.022Z,100954.35
2022-10-22T00:28:45.684Z,100950.42
2022-10-22T00:31:12.382Z,100944.77
2022-10-22T00:33:39.111Z,100939.39
2022-10-22T00:36:06.201Z,100934.93
2022-10-22T00:38:33.319Z,100927.52
2022-10-22T00:43:31.533Z,100934.81
2022-10-22T00:45:58.163Z,100929.09
2022-10-22T00:48:29.518Z,100917.38
2022-10-22T00:51:14.385Z,100915.64
2022-10-22T00:53:46.847Z,100921.67
2022-10-22T00:56:13.515Z,100916.36
2022-10-22T00:58:43.849Z,100905.27
2022-10-22T01:01:16.012Z,100895.15
2022-10-22T01:03:42.697Z,100892.17
2022-10-22T01:06:10.295Z,100891.20
2022-10-22T01:08:43.326Z,100901.55
2022-10-22T01:11:22.867Z,100879.71
2022-10-22T01:14:07.312Z,100878.50
2022-10-22T01:16:52.972Z,100882.38
2022-10-22T01:20:03.950Z,100879.36
2022-10-22T01:22:34.281Z,100876.92
2022-10-22T01:25:16.503Z,100868.77
2022-10-22T01:28:01.848Z,100868.54
2022-10-22T01:30:28.471Z,100863.32
2022-10-22T01:32:58.387Z,100864.64
2022-10-22T01:35:29.792Z,100869.39
2022-10-22T01:37:58.516Z,100868.02
2022-10-22T01:40:25.393Z,100865.96
2022-10-22T01:42:57.585Z,100868.13
2022-10-22T01:45:24.452Z,100870.98
2022-10-22T01:48:20.132Z,100870.46
2022-10-22T01:51:16.564Z,100867.27
2022-10-22T01:53:53.762Z,100865.55
2022-10-22T01:56:36.674Z,100865.91
2022-10-22T01:59:14.656Z,100862.58
2022-10-22T02:02:00.201Z,100861.25
2022-10-22T02:04:30.123Z,100859.14
2022-10-22T02:06:58.709Z,100854.94
2022-10-22T02:09:25.419Z,100859.18
2022-10-22T02:11:52.118Z,100861.05
2022-10-22T02:14:18.847Z,100860.23
2022-10-22T02:16:46.457Z,100858.05
2022-10-22T02:19:25.137Z,100855.30
2022-10-22T02:21:52.023Z,100848.79
2022-10-22T02:24:18.777Z,100844.62
2022-10-22T02:27:27.155Z,100841.45
2022-10-22T02:30:07.166Z,100835.49
2022-10-22T02:32:44.643Z,100834.42
2022-10-22T02:35:15.844Z,100828.49
2022-10-22T02:37:42.507Z,100827.58
2022-10-22T02:40:09.579Z,100826.30
2022-10-22T02:42:37.261Z,100822.17
2022-10-22T02:45:04.331Z,100816.23
2022-10-22T02:47:31.051Z,100809.88
2022-10-22T02:49:57.723Z,100800.66
2022-10-22T02:52:24.424Z,100797.17
2022-10-22T02:54:51.060Z,100799.89
2022-10-22T02:57:17.887Z,100800.31
2022-10-22T02:59:44.533Z,100803.20
2022-10-22T03:02:11.193Z,100806.52
2022-10-22T03:04:37.876Z,100811.54
2022-10-22T03:07:04.537Z,100809.02
2022-10-22T03:09:31.185Z,100806.69
2022-10-22T03:11:57.925Z,100803.36
2022-10-22T03:14:24.587Z,100789.68
2022-10-22T03:16:51.202Z,100781.12
2022-10-22T03:19:17.995Z,100781.36
2022-10-22T03:21:55.716Z,100777.27
2022-10-22T03:24:24.849Z,100781.95
2022-10-22T03:26:54.582Z,100774.06
2022-10-22T03:29:22.321Z,100776.17
2022-10-22T03:31:49.048Z,100771.53
2022-10-22T03:34:15.774Z,100765.70
2022-10-22T03:36:42.430Z,100756.71
2022-10-22T03:39:09.149Z,100757.42
2022-10-22T03:41:35.848Z,100757.34
2022-10-22T03:44:03.011Z,100756.34
2022-10-22T03:46:29.652Z,100755.50
2022-10-22T03:48:56.302Z,100752.22
2022-10-22T03:51:23.632Z,100757.66
2022-10-22T03:53:51.101Z,100754.20
2022-10-22T03:56:17.717Z,100752.46
2022-10-22T03:58:44.375Z,100758.27
2022-10-22T04:01:12.585Z,100750.25
2022-10-22T04:03:39.648Z,100750.27
2022-10-22T04:06:08.152Z,100745.36
2022-10-22T04:08:34.854Z,100741.50
2022-10-22T04:11:01.665Z,100740.42
2022-10-22T04:13:28.303Z,100735.05
2022-10-22T04:15:55.110Z,100733.45
2022-10-22T04:18:23.466Z,100733.27
2022-10-22T04:20:51.679Z,100729.76
2022-10-22T04:23:18.336Z,100726.36
2022-10-22T04:25:44.980Z,100725.80
2022-10-22T04:28:11.617Z,100724.88
2022-10-22T04:30:38.304Z,100723.58
2022-10-22T04:33:04.992Z,100715.26
2022-10-22T04:35:31.656Z,100722.58
2022-10-22T04:37:58.385Z,100725.20
2022-10-22T04:40:25.027Z,100720.45
2022-10-22T04:42:51.656Z,100720.61
2022-10-22T04:45:18.295Z,100724.93
2022-10-22T04:47:45.041Z,100722.88
2022-10-22T04:50:11.844Z,100722.05
2022-10-22T04:52:39.224Z,100728.70
2022-10-22T04:55:06.466Z,100725.50
2022-10-22T04:57:33.099Z,100721.55
2022-10-22T04:59:59.800Z,100719.71
2022-10-22T05:02:26.726Z,100714.55
2022-10-22T05:04:53.364Z,100708.36
2022-10-22T05:07:20.005Z,100705.01
2022-10-22T05:09:46.680Z,100704.16
2022-10-22T05:12:13.432Z,100701.39
2022-10-22T05:14:43.985Z,100699.59
2022-10-22T05:17:11.740Z,100696.86
2022-10-22T05:19:38.415Z,100694.19
2022-10-22T05:22:05.172Z,100700.84
2022-10-22T05:24:32.413Z,100714.98
2022-10-22T05:26:59.951Z,100706.34
2022-10-22T05:29:35.984Z,100701.67
2022-10-22T05:32:02.783Z,100708.33
2022-10-22T05:34:29.460Z,100707.51
2022-10-22T05:36:56.089Z,100709.46
2022-10-22T05:39:22.748Z,100703.41
2022-10-22T05:41:49.398Z,100710.08
2022-10-22T05:44:16.117Z,100711.91
2022-10-22T05:47:01.201Z,100716.94
2022-10-22T05:49:27.944Z,100719.80
2022-10-22T05:51:54.572Z,100724.61
2022-10-22T05:54:22.349Z,100724.55
2022-10-22T05:56:49.087Z,100721.80
2022-10-22T05:59:15.715Z,100710.33
2022-10-22T06:01:42.445Z,100703.66
2022-10-22T06:04:10.888Z,100691.45
2022-10-22T06:06:45.248Z,100696.48
2022-10-22T06:09:31.897Z,100695.98
2022-10-22T06:11:58.837Z,100700.66
2022-10-22T06:14:25.653Z,100696.29
2022-10-22T06:16:52.451Z,100694.73
2022-10-22T06:19:20.136Z,100695.11
2022-10-22T06:21:47.045Z,100702.73
2022-10-22T06:24:13.903Z,100710.56
2022-10-22T06:26:41.135Z,100705.09
2022-10-22T08:28:25.961Z,100659.46
2022-10-22T08:30:52.602Z,100662.95
2022-10-22T08:33:19.336Z,100664.17
2022-10-22T08:35:52.375Z,100659.11
2022-10-22T08:38:19.257Z,100653.65
2022-10-22T08:43:44.768Z,100657.02
2022-10-22T08:46:33.034Z,100660.20
2022-10-22T08:49:01.792Z,100654.40
2022-10-22T08:51:31.546Z,100650.64
2022-10-22T08:54:19.437Z,100648.51
2022-10-22T08:56:50.833Z,100642.66
2022-10-22T08:59:20.294Z,100641.44
2022-10-22T09:01:49.861Z,100643.52
2022-10-22T09:04:25.515Z,100645.86
2022-10-22T09:06:53.695Z,100638.31
2022-10-22T09:09:21.412Z,100640.10
2022-10-22T09:11:50.037Z,100637.84
2022-10-22T09:14:21.913Z,100640.42
2022-10-22T09:16:57.404Z,100642.92
2022-10-22T09:19:38.216Z,100638.71
2022-10-22T09:22:11.320Z,100619.69
2022-10-22T09:25:06.602Z,100608.25
2022-10-22T09:27:33.257Z,100602.47
2022-10-22T09:30:00.770Z,100600.03
2022-10-22T09:32:27.424Z,100594.13
2022-10-22T09:34:56.384Z,100593.61
2022-10-22T09:37:26.280Z,100581.25
2022-10-22T09:39:53.189Z,100580.67
2022-10-22T09:42:20.452Z,100587.77
2022-10-22T09:44:55.090Z,100583.27
2022-10-22T09:48:00.420Z,100569.30
2022-10-22T09:50:47.659Z,100564.38
2022-10-22T09:53:21.942Z,100558.98
2022-10-22T09:55:59.162Z,100557.38
2022-10-22T09:58:25.940Z,100555.91
2022-10-22T10:00:55.053Z,100558.84
2022-10-22T10:03:23.445Z,100568.85
2022-10-22T10:05:53.141Z,100575.13
2022-10-22T10:08:19.832Z,100570.48
2022-10-22T10:11:12.906Z,100564.34
2022-10-22T10:14:07.193Z,100562.23
2022-10-22T10:16:33.734Z,100557.73
2022-10-22T10:19:24.741Z,100552.48
2022-10-22T10:22:10.805Z,100550.58
2022-10-22T10:25:15.096Z,100554.71
2022-10-22T10:27:48.987Z,100552.60
2022-10-22T10:30:30.705Z,100550.00
2022-10-22T10:33:38.372Z,100554.73
2022-10-22T10:36:17.178Z,100550.83
2022-10-22T10:39:08.449Z,100543.32
2022-10-22T10:42:05.043Z,100531.38
2022-10-22T10:44:51.927Z,100529.75
2022-10-22T10:47:21.633Z,100536.81
2022-10-22T10:49:48.252Z,100540.15
2022-10-22T10:52:30.540Z,100537.39
2022-10-22T10:55:19.875Z,100530.84
2022-10-22T10:57:56.110Z,100538.67
2022-10-22T11:00:22.818Z,100538.77
2022-10-22T11:03:34.230Z,100533.48
2022-10-22T11:06:03.136Z,100525.98
2022-10-22T11:08:55.035Z,100527.55
2022-10-22T11:11:27.885Z,100527.59
2022-10-22T11:14:00.479Z,100516.45
2022-10-22T11:16:43.097Z,100511.25
2022-10-22T11:19:50.235Z,100512.25
2022-10-22T11:22:26.469Z,100513.02
2022-10-22T11:25:01.655Z,100519.69
2022-10-22T11:27:47.299Z,100510.94
2022-10-22T11:30:16.288Z,100503.02
2022-10-22T11:32:44.517Z,100501.14
2022-10-22T11:35:26.034Z,100499.60
2022-10-22T11:37:52.993Z,100490.69
2022-10-22T11:40:21.151Z,100484.83
2022-10-22T16:06:44.973Z,100322.08
2022-10-22T16:16:16.652Z,100342.91
2022-10-22T16:18:43.479Z,100336.32
2022-10-22T21:59:36.332Z,100163.92
2022-10-22T22:02:05.832Z,100158.80
2022-10-22T22:04:38.302Z,100159.02
2022-10-22T22:07:10.623Z,100155.95
2022-10-22T22:09:37.654Z,100152.05
2022-10-22T22:12:05.200Z,100150.35
2022-10-22T22:14:32.735Z,100151.64
2022-10-22T22:16:59.484Z,100153.23
2022-10-22T22:19:26.417Z,100149.44
2022-10-22T22:21:53.611Z,100149.34
2022-10-22T22:24:20.309Z,100147.11
2022-10-22T22:26:47.981Z,100147.05
2022-10-22T22:29:14.848Z,100147.29
2022-10-22T22:31:42.955Z,100147.43
2022-10-22T22:34:20.401Z,100145.63
2022-10-22T22:36:48.324Z,100144.52
2022-10-22T22:39:20.734Z,100142.31
2022-10-22T22:41:48.017Z,100141.29
2022-10-22T22:44:15.199Z,100136.14
2022-10-22T22:46:41.981Z,100132.92
2022-10-22T22:49:08.813Z,100133.38
2022-10-22T22:51:35.609Z,100130.91
2022-10-22T22:54:02.331Z,100131.80
2022-10-22T22:56:30.171Z,100130.65
2022-10-22T22:58:57.069Z,100133.30
2022-10-22T23:01:29.035Z,100136.95
2022-10-22T23:04:04.163Z,100138.83
2022-10-22T23:06:33.191Z,100140.83
2022-10-22T23:09:00.080Z,100134.52
2022-10-22T23:11:27.200Z,100131.34
2022-10-22T23:13:58.528Z,100130.77
2022-10-22T23:16:27.324Z,100127.48
2022-10-22T23:18:54.673Z,100127.34
2022-10-22T23:21:23.550Z,100126.73
2022-10-22T23:23:52.005Z,100123.05
2022-10-22T23:26:20.381Z,100125.36
2022-10-22T23:28:47.120Z,100122.31
2022-10-22T23:31:19.165Z,100121.45
2022-10-22T23:33:45.906Z,100119.13
2022-10-22T23:36:12.708Z,100118.29
2022-10-22T23:38:39.684Z,100120.42
2022-10-22T23:41:06.459Z,100116.89
2022-10-22T23:43:36.072Z,100116.20
2022-10-22T23:46:06.118Z,100121.22
2022-10-22T23:48:44.763Z,100119.34
2022-10-22T23:51:16.907Z,100118.31
2022-10-22T23:53:44.201Z,100117.48
2022-10-22T23:56:17.754Z,100119.39
2022-10-22T23:58:44.496Z,100112.84
